sensor_id;sensor_type;location;lat;lon;timestamp;P1;durP1;ratioP1;P2;durP2;ratioP2
83099;SDS011;72972;51.784;4.660;2024-03-23T00:54:14;7.45;;;2.33;;
83099;SDS011;72972;51.784;4.660;2024-03-23T00:56:40;6.90;;;2.17;;
83099;SDS011;72972;51.784;4.660;2024-03-23T00:59:05;9.60;;;2.15;;
83099;SDS011;72972;51.784;4.660;2024-03-23T01:01:32;5.13;;;1.90;;
83099;SDS011;72972;51.784;4.660;2024-03-23T01:04:00;8.52;;;2.53;;
83099;SDS011;72972;51.784;4.660;2024-03-23T01:06:26;8.15;;;2.25;;
83099;SDS011;72972;51.784;4.660;2024-03-23T01:08:52;7.38;;;2.45;;
83099;SDS011;72972;51.784;4.660;2024-03-23T01:11:17;6.88;;;2.70;;
83099;SDS011;72972;51.784;4.660;2024-03-23T01:13:43;4.70;;;2.30;;
83099;SDS011;72972;51.784;4.660;2024-03-23T01:16:10;8.35;;;2.63;;
83099;SDS011;72972;51.784;4.660;2024-03-23T01:18:35;12.45;;;2.70;;
83099;SDS011;72972;51.784;4.660;2024-03-23T01:21:02;8.00;;;2.85;;
83099;SDS011;72972;51.784;4.660;2024-03-23T01:23:27;9.05;;;3.03;;
83099;SDS011;72972;51.784;4.660;2024-03-23T01:25:54;10.68;;;3.15;;
83099;SDS011;72972;51.784;4.660;2024-03-23T01:28:20;13.13;;;3.30;;
83099;SDS011;72972;51.784;4.660;2024-03-23T01:30:47;7.50;;;3.15;;
83099;SDS011;72972;51.784;4.660;2024-03-23T01:33:13;7.22;;;3.30;;
83099;SDS011;72972;51.784;4.660;2024-03-23T01:35:40;14.20;;;3.95;;
83099;SDS011;72972;51.784;4.660;2024-03-23T01:38:09;6.13;;;3.50;;
83099;SDS011;72972;51.784;4.660;2024-03-23T01:40:36;12.43;;;3.88;;
83099;SDS011;72972;51.784;4.660;2024-03-23T01:43:05;10.77;;;3.60;;
83099;SDS011;72972;51.784;4.660;2024-03-23T01:45:36;13.20;;;4.10;;
83099;SDS011;72972;51.784;4.660;2024-03-23T01:48:02;9.20;;;3.28;;
83099;SDS011;72972;51.784;4.660;2024-03-23T01:50:28;7.53;;;3.10;;
83099;SDS011;72972;51.784;4.660;2024-03-23T01:53:00;9.63;;;3.80;;
83099;SDS011;72972;51.784;4.660;2024-03-23T01:55:31;10.00;;;3.85;;
83099;SDS011;72972;51.784;4.660;2024-03-23T01:57:58;7.82;;;3.45;;
83099;SDS011;72972;51.784;4.660;2024-03-23T02:00:30;9.55;;;3.63;;
83099;SDS011;72972;51.784;4.660;2024-03-23T02:02:56;5.85;;;2.95;;
83099;SDS011;72972;51.784;4.660;2024-03-23T02:05:22;9.60;;;3.45;;
83099;SDS011;72972;51.784;4.660;2024-03-23T02:07:48;6.78;;;3.40;;
83099;SDS011;72972;51.784;4.660;2024-03-23T02:10:14;7.45;;;3.67;;
83099;SDS011;72972;51.784;4.660;2024-03-23T02:12:41;8.20;;;3.40;;
83099;SDS011;72972;51.784;4.660;2024-03-23T02:15:07;11.27;;;3.72;;
83099;SDS011;72972;51.784;4.660;2024-03-23T02:17:35;7.75;;;3.40;;
83099;SDS011;72972;51.784;4.660;2024-03-23T02:20:02;6.97;;;3.30;;
83099;SDS011;72972;51.784;4.660;2024-03-23T02:22:37;8.93;;;3.40;;
83099;SDS011;72972;51.784;4.660;2024-03-23T02:25:04;7.90;;;3.53;;
83099;SDS011;72972;51.784;4.660;2024-03-23T02:27:31;5.82;;;2.72;;
83099;SDS011;72972;51.784;4.660;2024-03-23T02:29:58;10.85;;;3.65;;
83099;SDS011;72972;51.784;4.660;2024-03-23T02:32:25;10.68;;;3.22;;
83099;SDS011;72972;51.784;4.660;2024-03-23T02:34:53;8.52;;;3.08;;
83099;SDS011;72972;51.784;4.660;2024-03-23T02:37:22;15.35;;;3.38;;
83099;SDS011;72972;51.784;4.660;2024-03-23T02:39:48;5.78;;;2.97;;
83099;SDS011;72972;51.784;4.660;2024-03-23T02:42:14;6.47;;;3.17;;
83099;SDS011;72972;51.784;4.660;2024-03-23T02:44:44;13.82;;;3.45;;
83099;SDS011;72972;51.784;4.660;2024-03-23T02:47:10;7.68;;;3.33;;
83099;SDS011;72972;51.784;4.660;2024-03-23T02:49:36;9.80;;;3.00;;
83099;SDS011;72972;51.784;4.660;2024-03-23T02:52:02;8.48;;;3.15;;
83099;SDS011;72972;51.784;4.660;2024-03-23T02:54:32;9.32;;;2.85;;
83099;SDS011;72972;51.784;4.660;2024-03-23T02:56:58;9.95;;;3.33;;
83099;SDS011;72972;51.784;4.660;2024-03-23T02:59:24;7.10;;;3.30;;
83099;SDS011;72972;51.784;4.660;2024-03-23T03:01:50;12.23;;;3.05;;
83099;SDS011;72972;51.784;4.660;2024-03-23T03:04:16;7.60;;;2.80;;
83099;SDS011;72972;51.784;4.660;2024-03-23T03:06:46;6.85;;;2.80;;
83099;SDS011;72972;51.784;4.660;2024-03-23T03:09:12;7.38;;;2.78;;
83099;SDS011;72972;51.784;4.660;2024-03-23T03:11:38;5.57;;;2.50;;
83099;SDS011;72972;51.784;4.660;2024-03-23T03:14:04;8.13;;;2.53;;
83099;SDS011;72972;51.784;4.660;2024-03-23T03:16:33;3.72;;;2.28;;
83099;SDS011;72972;51.784;4.660;2024-03-23T03:18:59;11.13;;;2.53;;
83099;SDS011;72972;51.784;4.660;2024-03-23T03:21:25;6.78;;;2.03;;
83099;SDS011;72972;51.784;4.660;2024-03-23T03:23:54;8.35;;;2.53;;
83099;SDS011;72972;51.784;4.660;2024-03-23T03:26:22;4.30;;;1.83;;
83099;SDS011;72972;51.784;4.660;2024-03-23T03:28:48;6.90;;;2.13;;
83099;SDS011;72972;51.784;4.660;2024-03-23T03:31:17;5.18;;;1.70;;
83099;SDS011;72972;51.784;4.660;2024-03-23T03:33:43;5.97;;;2.33;;
83099;SDS011;72972;51.784;4.660;2024-03-23T03:36:10;6.28;;;2.05;;
83099;SDS011;72972;51.784;4.660;2024-03-23T03:38:36;4.68;;;1.80;;
83099;SDS011;72972;51.784;4.660;2024-03-23T03:41:03;7.78;;;2.30;;
83099;SDS011;72972;51.784;4.660;2024-03-23T03:43:31;6.15;;;2.00;;
83099;SDS011;72972;51.784;4.660;2024-03-23T03:45:58;4.55;;;2.35;;
83099;SDS011;72972;51.784;4.660;2024-03-23T03:48:25;4.63;;;2.00;;
83099;SDS011;72972;51.784;4.660;2024-03-23T03:50:52;5.32;;;1.73;;
83099;SDS011;72972;51.784;4.660;2024-03-23T03:53:18;8.18;;;2.03;;
83099;SDS011;72972;51.784;4.660;2024-03-23T03:55:45;6.32;;;1.70;;
83099;SDS011;72972;51.784;4.660;2024-03-23T03:58:11;5.47;;;2.03;;
83099;SDS011;72972;51.784;4.660;2024-03-23T04:00:36;5.45;;;1.98;;
83099;SDS011;72972;51.784;4.660;2024-03-23T04:03:02;3.92;;;1.50;;
83099;SDS011;72972;51.784;4.660;2024-03-23T04:05:28;7.88;;;2.00;;
83099;SDS011;72972;51.784;4.660;2024-03-23T04:07:56;6.03;;;1.70;;
83099;SDS011;72972;51.784;4.660;2024-03-23T04:10:22;5.15;;;1.73;;
83099;SDS011;72972;51.784;4.660;2024-03-23T04:12:48;6.13;;;1.50;;
83099;SDS011;72972;51.784;4.660;2024-03-23T04:15:14;2.97;;;1.40;;
83099;SDS011;72972;51.784;4.660;2024-03-23T04:17:40;9.27;;;2.28;;
83099;SDS011;72972;51.784;4.660;2024-03-23T04:20:08;4.88;;;1.77;;
83099;SDS011;72972;51.784;4.660;2024-03-23T04:22:37;6.35;;;1.80;;
83099;SDS011;72972;51.784;4.660;2024-03-23T04:25:03;7.32;;;1.70;;
83099;SDS011;72972;51.784;4.660;2024-03-23T04:27:35;5.63;;;1.77;;
83099;SDS011;72972;51.784;4.660;2024-03-23T04:30:02;4.47;;;2.13;;
83099;SDS011;72972;51.784;4.660;2024-03-23T04:32:30;4.43;;;1.52;;
83099;SDS011;72972;51.784;4.660;2024-03-23T04:34:56;3.95;;;1.58;;
83099;SDS011;72972;51.784;4.660;2024-03-23T04:37:22;5.78;;;1.60;;
83099;SDS011;72972;51.784;4.660;2024-03-23T04:39:48;6.97;;;1.55;;
83099;SDS011;72972;51.784;4.660;2024-03-23T04:42:15;3.33;;;1.55;;
83099;SDS011;72972;51.784;4.660;2024-03-23T04:44:41;3.15;;;1.30;;
83099;SDS011;72972;51.784;4.660;2024-03-23T04:47:07;4.15;;;2.13;;
83099;SDS011;72972;51.784;4.660;2024-03-23T04:49:33;5.07;;;1.70;;
83099;SDS011;72972;51.784;4.660;2024-03-23T04:52:02;4.32;;;1.50;;
83099;SDS011;72972;51.784;4.660;2024-03-23T04:54:29;6.55;;;1.83;;
83099;SDS011;72972;51.784;4.660;2024-03-23T04:56:56;5.03;;;1.40;;
83099;SDS011;72972;51.784;4.660;2024-03-23T04:59:22;5.80;;;1.65;;
83099;SDS011;72972;51.784;4.660;2024-03-23T05:01:47;7.18;;;1.70;;
83099;SDS011;72972;51.784;4.660;2024-03-23T05:04:13;3.03;;;1.70;;
83099;SDS011;72972;51.784;4.660;2024-03-23T05:06:39;2.72;;;1.35;;
83099;SDS011;72972;51.784;4.660;2024-03-23T05:09:05;5.90;;;1.60;;
83099;SDS011;72972;51.784;4.660;2024-03-23T05:11:32;5.28;;;2.03;;
83099;SDS011;72972;51.784;4.660;2024-03-23T05:13:59;4.38;;;2.35;;
83099;SDS011;72972;51.784;4.660;2024-03-23T05:16:25;11.77;;;1.88;;
83099;SDS011;72972;51.784;4.660;2024-03-23T05:18:52;5.78;;;1.85;;
83099;SDS011;72972;51.784;4.660;2024-03-23T05:21:17;5.68;;;1.73;;
83099;SDS011;72972;51.784;4.660;2024-03-23T05:23:43;8.55;;;1.88;;
83099;SDS011;72972;51.784;4.660;2024-03-23T05:26:09;7.15;;;2.17;;
83099;SDS011;72972;51.784;4.660;2024-03-23T05:28:36;2.75;;;1.48;;
83099;SDS011;72972;51.784;4.660;2024-03-23T05:31:02;7.28;;;1.65;;
83099;SDS011;72972;51.784;4.660;2024-03-23T05:33:28;8.43;;;2.00;;
83099;SDS011;72972;51.784;4.660;2024-03-23T05:35:58;3.85;;;1.80;;
83099;SDS011;72972;51.784;4.660;2024-03-23T05:38:26;4.97;;;1.73;;
83099;SDS011;72972;51.784;4.660;2024-03-23T05:40:57;9.20;;;2.13;;
83099;SDS011;72972;51.784;4.660;2024-03-23T05:43:24;7.57;;;2.13;;
83099;SDS011;72972;51.784;4.660;2024-03-23T05:45:57;4.57;;;1.70;;
83099;SDS011;72972;51.784;4.660;2024-03-23T05:48:25;8.27;;;1.92;;
83099;SDS011;72972;51.784;4.660;2024-03-23T05:50:52;4.93;;;2.03;;
83099;SDS011;72972;51.784;4.660;2024-03-23T05:53:18;5.47;;;1.67;;
83099;SDS011;72972;51.784;4.660;2024-03-23T05:55:48;5.18;;;1.83;;
83099;SDS011;72972;51.784;4.660;2024-03-23T05:58:15;7.45;;;2.35;;
83099;SDS011;72972;51.784;4.660;2024-03-23T06:00:44;9.27;;;1.90;;
83099;SDS011;72972;51.784;4.660;2024-03-23T06:03:10;8.40;;;2.05;;
83099;SDS011;72972;51.784;4.660;2024-03-23T06:05:39;6.53;;;1.95;;
83099;SDS011;72972;51.784;4.660;2024-03-23T06:08:05;10.13;;;1.80;;
83099;SDS011;72972;51.784;4.660;2024-03-23T06:10:35;5.53;;;2.00;;
83099;SDS011;72972;51.784;4.660;2024-03-23T06:13:01;6.15;;;2.38;;
83099;SDS011;72972;51.784;4.660;2024-03-23T06:15:27;8.02;;;2.33;;
83099;SDS011;72972;51.784;4.660;2024-03-23T06:17:53;5.07;;;2.05;;
83099;SDS011;72972;51.784;4.660;2024-03-23T06:20:19;9.57;;;2.53;;
83099;SDS011;72972;51.784;4.660;2024-03-23T06:22:46;7.03;;;2.25;;
83099;SDS011;72972;51.784;4.660;2024-03-23T06:25:12;6.38;;;2.47;;
83099;SDS011;72972;51.784;4.660;2024-03-23T06:27:38;6.18;;;2.08;;
83099;SDS011;72972;51.784;4.660;2024-03-23T06:30:05;3.33;;;1.73;;
83099;SDS011;72972;51.784;4.660;2024-03-23T06:32:35;7.88;;;2.10;;
83099;SDS011;72972;51.784;4.660;2024-03-23T06:35:01;5.60;;;1.88;;
83099;SDS011;72972;51.784;4.660;2024-03-23T06:37:33;5.90;;;2.33;;
83099;SDS011;72972;51.784;4.660;2024-03-23T06:40:00;6.47;;;1.80;;
83099;SDS011;72972;51.784;4.660;2024-03-23T06:42:25;5.50;;;2.00;;
83099;SDS011;72972;51.784;4.660;2024-03-23T06:44:50;6.50;;;1.83;;
83099;SDS011;72972;51.784;4.660;2024-03-23T06:47:16;8.15;;;1.95;;
83099;SDS011;72972;51.784;4.660;2024-03-23T06:49:41;4.22;;;1.92;;
83099;SDS011;72972;51.784;4.660;2024-03-23T06:52:08;4.72;;;1.90;;
83099;SDS011;72972;51.784;4.660;2024-03-23T06:54:34;4.47;;;2.08;;
83099;SDS011;72972;51.784;4.660;2024-03-23T06:56:59;4.47;;;1.90;;
83099;SDS011;72972;51.784;4.660;2024-03-23T06:59:24;4.78;;;1.80;;
83099;SDS011;72972;51.784;4.660;2024-03-23T07:01:50;10.13;;;2.15;;
83099;SDS011;72972;51.784;4.660;2024-03-23T07:04:15;3.95;;;1.70;;
83099;SDS011;72972;51.784;4.660;2024-03-23T07:06:44;9.88;;;2.30;;
83099;SDS011;72972;51.784;4.660;2024-03-23T07:09:10;8.68;;;2.15;;
83099;SDS011;72972;51.784;4.660;2024-03-23T07:11:36;5.32;;;1.52;;
83099;SDS011;72972;51.784;4.660;2024-03-23T07:14:01;5.45;;;1.48;;
83099;SDS011;72972;51.784;4.660;2024-03-23T07:16:27;5.85;;;1.90;;
83099;SDS011;72972;51.784;4.660;2024-03-23T07:18:53;6.70;;;1.52;;
83099;SDS011;72972;51.784;4.660;2024-03-23T07:21:19;5.18;;;1.90;;
83099;SDS011;72972;51.784;4.660;2024-03-23T07:23:44;5.43;;;1.48;;
83099;SDS011;72972;51.784;4.660;2024-03-23T07:26:10;5.55;;;1.95;;
83099;SDS011;72972;51.784;4.660;2024-03-23T07:28:36;6.03;;;2.00;;
83099;SDS011;72972;51.784;4.660;2024-03-23T07:33:27;4.90;;;1.73;;
83099;SDS011;72972;51.784;4.660;2024-03-23T07:35:53;5.60;;;1.67;;
83099;SDS011;72972;51.784;4.660;2024-03-23T07:38:18;4.95;;;1.75;;
83099;SDS011;72972;51.784;4.660;2024-03-23T07:40:44;6.07;;;1.85;;
83099;SDS011;72972;51.784;4.660;2024-03-23T07:43:09;5.10;;;1.63;;
83099;SDS011;72972;51.784;4.660;2024-03-23T07:45:35;7.18;;;2.20;;
83099;SDS011;72972;51.784;4.660;2024-03-23T07:48:00;6.13;;;1.52;;
83099;SDS011;72972;51.784;4.660;2024-03-23T07:50:25;5.03;;;2.15;;
83099;SDS011;72972;51.784;4.660;2024-03-23T07:52:51;6.32;;;1.80;;
83099;SDS011;72972;51.784;4.660;2024-03-23T07:55:16;5.22;;;1.83;;
83099;SDS011;72972;51.784;4.660;2024-03-23T07:57:42;6.93;;;1.90;;
83099;SDS011;72972;51.784;4.660;2024-03-23T08:00:13;4.20;;;1.55;;
83099;SDS011;72972;51.784;4.660;2024-03-23T08:02:39;3.80;;;1.42;;
83099;SDS011;72972;51.784;4.660;2024-03-23T08:05:05;6.13;;;1.70;;
83099;SDS011;72972;51.784;4.660;2024-03-23T08:07:30;6.10;;;1.60;;
83099;SDS011;72972;51.784;4.660;2024-03-23T08:09:56;7.72;;;1.73;;
83099;SDS011;72972;51.784;4.660;2024-03-23T08:12:21;5.25;;;2.03;;
83099;SDS011;72972;51.784;4.660;2024-03-23T08:14:46;6.30;;;1.63;;
83099;SDS011;72972;51.784;4.660;2024-03-23T08:17:12;7.55;;;1.70;;
83099;SDS011;72972;51.784;4.660;2024-03-23T08:19:37;2.03;;;1.20;;
83099;SDS011;72972;51.784;4.660;2024-03-23T08:22:03;7.47;;;1.95;;
83099;SDS011;72972;51.784;4.660;2024-03-23T08:24:28;5.47;;;1.48;;
83099;SDS011;72972;51.784;4.660;2024-03-23T08:26:54;5.35;;;1.55;;
83099;SDS011;72972;51.784;4.660;2024-03-23T08:29:19;4.15;;;1.52;;
83099;SDS011;72972;51.784;4.660;2024-03-23T08:31:45;12.52;;;1.70;;
83099;SDS011;72972;51.784;4.660;2024-03-23T08:34:10;4.82;;;1.70;;
83099;SDS011;72972;51.784;4.660;2024-03-23T08:36:36;3.67;;;1.52;;
83099;SDS011;72972;51.784;4.660;2024-03-23T08:39:01;5.95;;;1.70;;
83099;SDS011;72972;51.784;4.660;2024-03-23T08:41:27;4.70;;;1.55;;
83099;SDS011;72972;51.784;4.660;2024-03-23T08:43:52;3.72;;;1.83;;
83099;SDS011;72972;51.784;4.660;2024-03-23T08:46:18;8.57;;;2.60;;
83099;SDS011;72972;51.784;4.660;2024-03-23T08:48:43;8.75;;;1.77;;
83099;SDS011;72972;51.784;4.660;2024-03-23T08:51:13;7.00;;;1.60;;
83099;SDS011;72972;51.784;4.660;2024-03-23T08:53:40;6.07;;;1.75;;
83099;SDS011;72972;51.784;4.660;2024-03-23T08:56:06;9.25;;;1.90;;
83099;SDS011;72972;51.784;4.660;2024-03-23T08:58:32;4.20;;;1.38;;
83099;SDS011;72972;51.784;4.660;2024-03-23T09:01:17;7.88;;;1.70;;
83099;SDS011;72972;51.784;4.660;2024-03-23T09:03:42;2.53;;;1.40;;
83099;SDS011;72972;51.784;4.660;2024-03-23T09:06:08;9.05;;;2.20;;
83099;SDS011;72972;51.784;4.660;2024-03-23T09:08:37;2.88;;;1.30;;
83099;SDS011;72972;51.784;4.660;2024-03-23T09:11:07;3.33;;;1.60;;
83099;SDS011;72972;51.784;4.660;2024-03-23T09:13:34;3.38;;;1.45;;
83099;SDS011;72972;51.784;4.660;2024-03-23T09:16:00;7.18;;;1.50;;
83099;SDS011;72972;51.784;4.660;2024-03-23T09:18:27;4.13;;;1.65;;
83099;SDS011;72972;51.784;4.660;2024-03-23T09:20:52;5.78;;;1.55;;
83099;SDS011;72972;51.784;4.660;2024-03-23T09:23:19;8.32;;;2.15;;
83099;SDS011;72972;51.784;4.660;2024-03-23T09:25:45;7.65;;;1.90;;
83099;SDS011;72972;51.784;4.660;2024-03-23T09:28:11;6.97;;;1.60;;
83099;SDS011;72972;51.784;4.660;2024-03-23T09:30:36;4.43;;;1.67;;
83099;SDS011;72972;51.784;4.660;2024-03-23T09:33:08;10.02;;;2.28;;
83099;SDS011;72972;51.784;4.660;2024-03-23T09:35:40;6.00;;;1.42;;
83099;SDS011;72972;51.784;4.660;2024-03-23T09:38:07;5.88;;;1.67;;
83099;SDS011;72972;51.784;4.660;2024-03-23T09:40:34;7.55;;;1.52;;
83099;SDS011;72972;51.784;4.660;2024-03-23T09:42:59;6.57;;;2.05;;
83099;SDS011;72972;51.784;4.660;2024-03-23T09:45:28;4.85;;;1.65;;
83099;SDS011;72972;51.784;4.660;2024-03-23T09:47:55;5.88;;;2.25;;
83099;SDS011;72972;51.784;4.660;2024-03-23T09:50:20;12.98;;;3.92;;
83099;SDS011;72972;51.784;4.660;2024-03-23T09:52:46;9.13;;;2.53;;
83099;SDS011;72972;51.784;4.660;2024-03-23T09:55:12;6.15;;;1.42;;
83099;SDS011;72972;51.784;4.660;2024-03-23T09:57:39;4.75;;;1.35;;
83099;SDS011;72972;51.784;4.660;2024-03-23T10:00:14;4.38;;;1.50;;
83099;SDS011;72972;51.784;4.660;2024-03-23T10:02:40;5.47;;;2.10;;
83099;SDS011;72972;51.784;4.660;2024-03-23T10:05:19;3.33;;;1.60;;
83099;SDS011;72972;51.784;4.660;2024-03-23T10:07:47;2.60;;;1.30;;
83099;SDS011;72972;51.784;4.660;2024-03-23T10:10:12;8.25;;;1.98;;
83099;SDS011;72972;51.784;4.660;2024-03-23T10:12:40;5.28;;;1.73;;
83099;SDS011;72972;51.784;4.660;2024-03-23T10:15:15;3.58;;;1.73;;
83099;SDS011;72972;51.784;4.660;2024-03-23T10:17:43;2.63;;;1.40;;
83099;SDS011;72972;51.784;4.660;2024-03-23T10:20:10;4.68;;;1.65;;
83099;SDS011;72972;51.784;4.660;2024-03-23T10:22:39;3.55;;;1.40;;
83099;SDS011;72972;51.784;4.660;2024-03-23T10:25:08;6.07;;;1.60;;
83099;SDS011;72972;51.784;4.660;2024-03-23T10:27:35;5.28;;;1.55;;
83099;SDS011;72972;51.784;4.660;2024-03-23T10:30:10;3.75;;;1.35;;
83099;SDS011;72972;51.784;4.660;2024-03-23T10:32:37;6.47;;;1.42;;
83099;SDS011;72972;51.784;4.660;2024-03-23T10:35:19;4.68;;;1.63;;
83099;SDS011;72972;51.784;4.660;2024-03-23T10:37:48;5.57;;;1.50;;
83099;SDS011;72972;51.784;4.660;2024-03-23T10:40:17;3.08;;;1.50;;
83099;SDS011;72972;51.784;4.660;2024-03-23T10:42:43;3.75;;;1.63;;
83099;SDS011;72972;51.784;4.660;2024-03-23T10:45:09;3.47;;;1.85;;
83099;SDS011;72972;51.784;4.660;2024-03-23T10:47:35;9.93;;;1.55;;
83099;SDS011;72972;51.784;4.660;2024-03-23T10:52:53;3.58;;;1.55;;
83099;SDS011;72972;51.784;4.660;2024-03-23T10:55:21;4.90;;;1.50;;
83099;SDS011;72972;51.784;4.660;2024-03-23T10:57:53;5.63;;;1.80;;
83099;SDS011;72972;51.784;4.660;2024-03-23T11:00:20;5.88;;;1.88;;
83099;SDS011;72972;51.784;4.660;2024-03-23T11:02:47;4.65;;;1.80;;
83099;SDS011;72972;51.784;4.660;2024-03-23T11:05:46;4.82;;;1.58;;
83099;SDS011;72972;51.784;4.660;2024-03-23T11:08:11;6.25;;;1.83;;
83099;SDS011;72972;51.784;4.660;2024-03-23T11:11:11;3.97;;;1.45;;
83099;SDS011;72972;51.784;4.660;2024-03-23T11:13:50;6.00;;;1.70;;
83099;SDS011;72972;51.784;4.660;2024-03-23T11:18:42;6.25;;;1.75;;
83099;SDS011;72972;51.784;4.660;2024-03-23T11:21:09;5.70;;;1.92;;
83099;SDS011;72972;51.784;4.660;2024-03-23T11:23:36;3.90;;;1.25;;
83099;SDS011;72972;51.784;4.660;2024-03-23T11:28:36;4.32;;;1.67;;
83099;SDS011;72972;51.784;4.660;2024-03-23T11:36:06;3.25;;;1.15;;
83099;SDS011;72972;51.784;4.660;2024-03-23T11:38:36;4.00;;;1.80;;
83099;SDS011;72972;51.784;4.660;2024-03-23T11:43:28;6.15;;;2.00;;
83099;SDS011;72972;51.784;4.660;2024-03-23T11:45:54;6.03;;;1.90;;
83099;SDS011;72972;51.784;4.660;2024-03-23T11:48:27;3.95;;;1.60;;
83099;SDS011;72972;51.784;4.660;2024-03-23T11:50:56;4.35;;;1.35;;
83099;SDS011;72972;51.784;4.660;2024-03-23T11:53:24;3.05;;;1.10;;
83099;SDS011;72972;51.784;4.660;2024-03-23T11:55:55;4.03;;;1.20;;
83099;SDS011;72972;51.784;4.660;2024-03-23T11:58:23;6.93;;;1.75;;
83099;SDS011;72972;51.784;4.660;2024-03-23T12:00:56;3.60;;;1.15;;
83099;SDS011;72972;51.784;4.660;2024-03-23T12:03:23;6.63;;;1.38;;
83099;SDS011;72972;51.784;4.660;2024-03-23T12:05:58;2.50;;;1.38;;
83099;SDS011;72972;51.784;4.660;2024-03-23T12:08:28;5.05;;;1.60;;
83099;SDS011;72972;51.784;4.660;2024-03-23T12:11:11;5.40;;;1.55;;
83099;SDS011;72972;51.784;4.660;2024-03-23T12:13:41;3.72;;;1.33;;
83099;SDS011;72972;51.784;4.660;2024-03-23T12:18:42;5.25;;;1.45;;
83099;SDS011;72972;51.784;4.660;2024-03-23T12:21:09;2.60;;;1.55;;
83099;SDS011;72972;51.784;4.660;2024-03-23T12:23:35;5.22;;;1.80;;
83099;SDS011;72972;51.784;4.660;2024-03-23T12:26:01;4.82;;;1.50;;
83099;SDS011;72972;51.784;4.660;2024-03-23T12:28:27;5.20;;;1.75;;
83099;SDS011;72972;51.784;4.660;2024-03-23T12:30:53;5.15;;;1.40;;
83099;SDS011;72972;51.784;4.660;2024-03-23T12:33:19;6.93;;;1.38;;
83099;SDS011;72972;51.784;4.660;2024-03-23T12:35:48;6.05;;;1.40;;
83099;SDS011;72972;51.784;4.660;2024-03-23T12:38:14;3.60;;;1.50;;
83099;SDS011;72972;51.784;4.660;2024-03-23T12:40:40;6.57;;;1.63;;
83099;SDS011;72972;51.784;4.660;2024-03-23T12:43:06;2.40;;;1.27;;
83099;SDS011;72972;51.784;4.660;2024-03-23T12:45:32;3.47;;;1.50;;
83099;SDS011;72972;51.784;4.660;2024-03-23T12:47:59;4.05;;;1.58;;
83099;SDS011;72972;51.784;4.660;2024-03-23T12:50:24;7.18;;;2.00;;
83099;SDS011;72972;51.784;4.660;2024-03-23T12:52:50;13.10;;;2.25;;
83099;SDS011;72972;51.784;4.660;2024-03-23T12:55:16;1.98;;;0.95;;
83099;SDS011;72972;51.784;4.660;2024-03-23T12:57:42;3.72;;;1.30;;
83099;SDS011;72972;51.784;4.660;2024-03-23T13:00:08;2.50;;;1.08;;
83099;SDS011;72972;51.784;4.660;2024-03-23T13:02:36;6.40;;;1.48;;
83099;SDS011;72972;51.784;4.660;2024-03-23T13:05:04;6.60;;;1.60;;
83099;SDS011;72972;51.784;4.660;2024-03-23T13:07:30;6.97;;;1.88;;
83099;SDS011;72972;51.784;4.660;2024-03-23T13:09:55;4.82;;;1.60;;
83099;SDS011;72972;51.784;4.660;2024-03-23T13:12:22;6.22;;;1.25;;
83099;SDS011;72972;51.784;4.660;2024-03-23T13:14:48;5.40;;;1.80;;
83099;SDS011;72972;51.784;4.660;2024-03-23T13:17:14;2.40;;;1.40;;
83099;SDS011;72972;51.784;4.660;2024-03-23T13:19:40;4.30;;;1.63;;
83099;SDS011;72972;51.784;4.660;2024-03-23T13:22:05;5.03;;;1.60;;
83099;SDS011;72972;51.784;4.660;2024-03-23T13:24:31;3.40;;;1.35;;
83099;SDS011;72972;51.784;4.660;2024-03-23T13:26:57;3.85;;;1.25;;
83099;SDS011;72972;51.784;4.660;2024-03-23T13:29:23;7.70;;;1.52;;
83099;SDS011;72972;51.784;4.660;2024-03-23T13:31:50;3.55;;;1.23;;
83099;SDS011;72972;51.784;4.660;2024-03-23T13:34:17;5.55;;;2.00;;
83099;SDS011;72972;51.784;4.660;2024-03-23T13:36:44;3.15;;;1.45;;
83099;SDS011;72972;51.784;4.660;2024-03-23T13:39:10;5.78;;;1.58;;
83099;SDS011;72972;51.784;4.660;2024-03-23T13:41:40;5.93;;;1.20;;
83099;SDS011;72972;51.784;4.660;2024-03-23T13:44:06;3.33;;;1.33;;
83099;SDS011;72972;51.784;4.660;2024-03-23T13:46:33;2.47;;;1.45;;
83099;SDS011;72972;51.784;4.660;2024-03-23T13:48:59;6.32;;;1.40;;
83099;SDS011;72972;51.784;4.660;2024-03-23T13:51:25;2.90;;;1.35;;
83099;SDS011;72972;51.784;4.660;2024-03-23T13:53:54;5.22;;;1.00;;
83099;SDS011;72972;51.784;4.660;2024-03-23T13:56:22;2.33;;;0.80;;
83099;SDS011;72972;51.784;4.660;2024-03-23T13:58:48;3.72;;;1.17;;
83099;SDS011;72972;51.784;4.660;2024-03-23T14:01:15;3.95;;;1.50;;
83099;SDS011;72972;51.784;4.660;2024-03-23T14:03:41;2.47;;;1.13;;
83099;SDS011;72972;51.784;4.660;2024-03-23T14:06:11;3.22;;;1.10;;
83099;SDS011;72972;51.784;4.660;2024-03-23T14:08:37;4.43;;;1.20;;
83099;SDS011;72972;51.784;4.660;2024-03-23T14:11:06;4.10;;;1.35;;
83099;SDS011;72972;51.784;4.660;2024-03-23T14:13:32;3.95;;;1.50;;
83099;SDS011;72972;51.784;4.660;2024-03-23T14:15:58;1.52;;;0.70;;
83099;SDS011;72972;51.784;4.660;2024-03-23T14:18:24;1.65;;;0.80;;
83099;SDS011;72972;51.784;4.660;2024-03-23T14:20:56;1.15;;;0.57;;
83099;SDS011;72972;51.784;4.660;2024-03-23T14:23:26;3.75;;;0.70;;
83099;SDS011;72972;51.784;4.660;2024-03-23T14:25:53;4.45;;;0.80;;
83099;SDS011;72972;51.784;4.660;2024-03-23T14:28:19;0.38;;;0.38;;
83099;SDS011;72972;51.784;4.660;2024-03-23T14:30:45;0.47;;;0.47;;
83099;SDS011;72972;51.784;4.660;2024-03-23T14:33:11;1.15;;;0.73;;
83099;SDS011;72972;51.784;4.660;2024-03-23T14:35:37;1.90;;;0.75;;
83099;SDS011;72972;51.784;4.660;2024-03-23T14:38:03;0.98;;;0.40;;
83099;SDS011;72972;51.784;4.660;2024-03-23T14:40:29;3.20;;;0.77;;
83099;SDS011;72972;51.784;4.660;2024-03-23T14:42:54;0.90;;;0.63;;
83099;SDS011;72972;51.784;4.660;2024-03-23T14:45:25;2.50;;;0.70;;
83099;SDS011;72972;51.784;4.660;2024-03-23T14:48:02;1.05;;;0.80;;
83099;SDS011;72972;51.784;4.660;2024-03-23T14:50:27;2.05;;;0.80;;
83099;SDS011;72972;51.784;4.660;2024-03-23T14:52:53;6.28;;;1.10;;
83099;SDS011;72972;51.784;4.660;2024-03-23T14:55:19;1.77;;;0.88;;
83099;SDS011;72972;51.784;4.660;2024-03-23T14:57:44;1.73;;;0.80;;
83099;SDS011;72972;51.784;4.660;2024-03-23T15:03:08;2.08;;;1.05;;
83099;SDS011;72972;51.784;4.660;2024-03-23T15:05:34;2.45;;;0.73;;
83099;SDS011;72972;51.784;4.660;2024-03-23T15:07:59;1.08;;;0.52;;
83099;SDS011;72972;51.784;4.660;2024-03-23T15:10:24;0.68;;;0.65;;
83099;SDS011;72972;51.784;4.660;2024-03-23T15:12:50;0.52;;;0.52;;
83099;SDS011;72972;51.784;4.660;2024-03-23T15:15:16;0.73;;;0.40;;
83099;SDS011;72972;51.784;4.660;2024-03-23T15:17:42;2.67;;;1.00;;
83099;SDS011;72972;51.784;4.660;2024-03-23T15:20:10;0.55;;;0.50;;
83099;SDS011;72972;51.784;4.660;2024-03-23T15:22:40;0.80;;;0.55;;
83099;SDS011;72972;51.784;4.660;2024-03-23T15:25:07;1.38;;;0.70;;
83099;SDS011;72972;51.784;4.660;2024-03-23T15:27:33;1.10;;;0.70;;
83099;SDS011;72972;51.784;4.660;2024-03-23T15:29:59;0.40;;;0.40;;
83099;SDS011;72972;51.784;4.660;2024-03-23T15:32:24;0.85;;;0.43;;
83099;SDS011;72972;51.784;4.660;2024-03-23T15:34:50;3.67;;;0.80;;
83099;SDS011;72972;51.784;4.660;2024-03-23T15:37:15;0.77;;;0.75;;
83099;SDS011;72972;51.784;4.660;2024-03-23T15:39:41;1.75;;;0.60;;
83099;SDS011;72972;51.784;4.660;2024-03-23T15:42:06;0.30;;;0.28;;
83099;SDS011;72972;51.784;4.660;2024-03-23T15:44:32;1.55;;;0.57;;
83099;SDS011;72972;51.784;4.660;2024-03-23T15:46:58;2.10;;;1.00;;
83099;SDS011;72972;51.784;4.660;2024-03-23T15:49:23;0.82;;;0.80;;
83099;SDS011;72972;51.784;4.660;2024-03-23T15:51:48;2.15;;;1.30;;
83099;SDS011;72972;51.784;4.660;2024-03-23T15:54:14;1.40;;;0.90;;
83099;SDS011;72972;51.784;4.660;2024-03-23T15:56:39;2.33;;;0.93;;
83099;SDS011;72972;51.784;4.660;2024-03-23T15:59:05;3.67;;;1.60;;
83099;SDS011;72972;51.784;4.660;2024-03-23T16:01:32;2.15;;;0.95;;
83099;SDS011;72972;51.784;4.660;2024-03-23T16:04:02;3.38;;;1.08;;